sensor_id;sensor_type;location;lat;lon;timestamp;P1;durP1;ratioP1;P2;durP2;ratioP2
75429;SDS011;64127;51.488;5.462;2023-03-23T00:01:41;4.07;;;3.00;;
75429;SDS011;64127;51.488;5.462;2023-03-23T00:04:12;5.57;;;3.10;;
75429;SDS011;64127;51.488;5.462;2023-03-23T00:06:43;3.40;;;3.10;;
75429;SDS011;64127;51.488;5.462;2023-03-23T00:09:17;3.93;;;3.10;;
75429;SDS011;64127;51.488;5.462;2023-03-23T00:11:53;3.40;;;3.03;;
75429;SDS011;64127;51.488;5.462;2023-03-23T00:14:27;3.23;;;2.93;;
75429;SDS011;64127;51.488;5.462;2023-03-23T00:16:57;3.97;;;2.97;;
75429;SDS011;64127;51.488;5.462;2023-03-23T00:19:28;4.03;;;3.20;;
75429;SDS011;64127;51.488;5.462;2023-03-23T00:21:59;4.50;;;3.10;;
75429;SDS011;64127;51.488;5.462;2023-03-23T00:24:31;3.50;;;3.20;;
75429;SDS011;64127;51.488;5.462;2023-03-23T00:27:02;3.43;;;2.77;;
75429;SDS011;64127;51.488;5.462;2023-03-23T00:29:33;4.43;;;2.90;;
75429;SDS011;64127;51.488;5.462;2023-03-23T00:32:05;3.67;;;3.20;;
75429;SDS011;64127;51.488;5.462;2023-03-23T00:34:36;4.37;;;3.10;;
75429;SDS011;64127;51.488;5.462;2023-03-23T00:37:08;3.47;;;3.13;;
75429;SDS011;64127;51.488;5.462;2023-03-23T00:39:40;3.47;;;3.17;;
75429;SDS011;64127;51.488;5.462;2023-03-23T00:42:14;5.10;;;3.67;;
75429;SDS011;64127;51.488;5.462;2023-03-23T00:44:46;4.07;;;3.17;;
75429;SDS011;64127;51.488;5.462;2023-03-23T00:47:18;3.77;;;3.17;;
75429;SDS011;64127;51.488;5.462;2023-03-23T00:49:49;6.30;;;3.10;;
75429;SDS011;64127;51.488;5.462;2023-03-23T00:52:22;5.30;;;3.50;;
75429;SDS011;64127;51.488;5.462;2023-03-23T00:54:53;3.83;;;3.00;;
75429;SDS011;64127;51.488;5.462;2023-03-23T00:57:24;4.53;;;3.10;;
75429;SDS011;64127;51.488;5.462;2023-03-23T00:59:55;4.10;;;3.23;;
75429;SDS011;64127;51.488;5.462;2023-03-23T01:02:27;3.33;;;2.83;;
75429;SDS011;64127;51.488;5.462;2023-03-23T01:04:58;3.67;;;3.10;;
75429;SDS011;64127;51.488;5.462;2023-03-23T01:07:29;3.57;;;3.03;;
75429;SDS011;64127;51.488;5.462;2023-03-23T01:10:01;3.30;;;3.00;;
75429;SDS011;64127;51.488;5.462;2023-03-23T01:12:33;3.60;;;2.93;;
75429;SDS011;64127;51.488;5.462;2023-03-23T01:15:04;4.83;;;2.97;;
75429;SDS011;64127;51.488;5.462;2023-03-23T01:17:36;3.37;;;2.83;;
75429;SDS011;64127;51.488;5.462;2023-03-23T01:20:07;3.40;;;3.10;;
75429;SDS011;64127;51.488;5.462;2023-03-23T01:22:39;3.10;;;2.80;;
75429;SDS011;64127;51.488;5.462;2023-03-23T01:25:12;3.30;;;2.90;;
75429;SDS011;64127;51.488;5.462;2023-03-23T01:27:44;3.40;;;3.10;;
75429;SDS011;64127;51.488;5.462;2023-03-23T01:30:15;3.67;;;2.97;;
75429;SDS011;64127;51.488;5.462;2023-03-23T01:32:46;4.00;;;3.07;;
75429;SDS011;64127;51.488;5.462;2023-03-23T01:35:17;3.97;;;3.33;;
75429;SDS011;64127;51.488;5.462;2023-03-23T01:37:49;3.70;;;3.30;;
75429;SDS011;64127;51.488;5.462;2023-03-23T01:40:19;4.23;;;3.50;;
75429;SDS011;64127;51.488;5.462;2023-03-23T01:42:50;3.87;;;3.17;;
75429;SDS011;64127;51.488;5.462;2023-03-23T01:45:32;4.00;;;3.47;;
75429;SDS011;64127;51.488;5.462;2023-03-23T01:53:45;3.50;;;3.20;;
75429;SDS011;64127;51.488;5.462;2023-03-23T01:56:27;4.00;;;3.60;;
75429;SDS011;64127;51.488;5.462;2023-03-23T01:59:08;3.70;;;3.40;;
75429;SDS011;64127;51.488;5.462;2023-03-23T02:01:40;3.87;;;3.50;;
75429;SDS011;64127;51.488;5.462;2023-03-23T02:04:15;3.90;;;3.50;;
75429;SDS011;64127;51.488;5.462;2023-03-23T02:06:47;4.97;;;3.20;;
75429;SDS011;64127;51.488;5.462;2023-03-23T02:09:19;3.70;;;3.40;;
75429;SDS011;64127;51.488;5.462;2023-03-23T02:11:51;3.50;;;3.20;;
75429;SDS011;64127;51.488;5.462;2023-03-23T02:14:24;4.20;;;3.03;;
75429;SDS011;64127;51.488;5.462;2023-03-23T02:17:06;4.23;;;3.37;;
75429;SDS011;64127;51.488;5.462;2023-03-23T02:22:41;3.30;;;3.00;;
75429;SDS011;64127;51.488;5.462;2023-03-23T02:25:38;3.40;;;3.10;;
75429;SDS011;64127;51.488;5.462;2023-03-23T02:34:51;3.83;;;2.97;;
75429;SDS011;64127;51.488;5.462;2023-03-23T02:37:37;3.30;;;3.00;;
75429;SDS011;64127;51.488;5.462;2023-03-23T02:40:30;3.93;;;3.10;;
75429;SDS011;64127;51.488;5.462;2023-03-23T02:43:11;3.53;;;3.10;;
75429;SDS011;64127;51.488;5.462;2023-03-23T02:45:47;4.77;;;3.10;;
75429;SDS011;64127;51.488;5.462;2023-03-23T02:48:20;2.93;;;2.73;;
75429;SDS011;64127;51.488;5.462;2023-03-23T02:50:59;3.37;;;3.10;;
75429;SDS011;64127;51.488;5.462;2023-03-23T02:53:33;3.97;;;3.13;;
75429;SDS011;64127;51.488;5.462;2023-03-23T02:56:09;3.70;;;2.70;;
75429;SDS011;64127;51.488;5.462;2023-03-23T02:58:43;3.93;;;2.93;;
75429;SDS011;64127;51.488;5.462;2023-03-23T03:02:00;4.43;;;3.47;;
75429;SDS011;64127;51.488;5.462;2023-03-23T03:04:07;3.30;;;3.00;;
75429;SDS011;64127;51.488;5.462;2023-03-23T03:09:52;3.03;;;2.80;;
75429;SDS011;64127;51.488;5.462;2023-03-23T03:15:33;3.43;;;2.87;;
75429;SDS011;64127;51.488;5.462;2023-03-23T03:18:13;3.60;;;3.30;;
75429;SDS011;64127;51.488;5.462;2023-03-23T03:21:03;5.07;;;3.50;;
75429;SDS011;64127;51.488;5.462;2023-03-23T03:23:42;3.73;;;3.20;;
75429;SDS011;64127;51.488;5.462;2023-03-23T03:26:16;3.33;;;3.03;;
75429;SDS011;64127;51.488;5.462;2023-03-23T03:28:50;3.60;;;3.30;;
75429;SDS011;64127;51.488;5.462;2023-03-23T03:31:32;4.93;;;3.30;;
75429;SDS011;64127;51.488;5.462;2023-03-23T03:34:08;3.67;;;2.73;;
75429;SDS011;64127;51.488;5.462;2023-03-23T03:36:39;2.90;;;2.70;;
75429;SDS011;64127;51.488;5.462;2023-03-23T03:39:12;4.33;;;3.13;;
75429;SDS011;64127;51.488;5.462;2023-03-23T03:41:45;4.00;;;2.90;;
75429;SDS011;64127;51.488;5.462;2023-03-23T03:44:17;5.50;;;3.10;;
75429;SDS011;64127;51.488;5.462;2023-03-23T03:46:48;4.60;;;2.40;;
75429;SDS011;64127;51.488;5.462;2023-03-23T03:49:19;3.53;;;2.60;;
75429;SDS011;64127;51.488;5.462;2023-03-23T03:51:50;3.60;;;2.70;;
75429;SDS011;64127;51.488;5.462;2023-03-23T03:54:21;3.87;;;2.70;;
75429;SDS011;64127;51.488;5.462;2023-03-23T03:56:52;4.03;;;2.60;;
75429;SDS011;64127;51.488;5.462;2023-03-23T03:59:27;3.83;;;2.77;;
75429;SDS011;64127;51.488;5.462;2023-03-23T04:02:00;5.47;;;2.53;;
75429;SDS011;64127;51.488;5.462;2023-03-23T04:04:32;4.17;;;2.53;;
75429;SDS011;64127;51.488;5.462;2023-03-23T04:07:03;4.63;;;2.60;;
75429;SDS011;64127;51.488;5.462;2023-03-23T04:09:35;3.13;;;2.30;;
75429;SDS011;64127;51.488;5.462;2023-03-23T04:12:07;3.70;;;2.17;;
75429;SDS011;64127;51.488;5.462;2023-03-23T04:14:41;4.17;;;2.53;;
75429;SDS011;64127;51.488;5.462;2023-03-23T04:17:12;5.37;;;2.47;;
75429;SDS011;64127;51.488;5.462;2023-03-23T04:19:44;6.27;;;2.70;;
75429;SDS011;64127;51.488;5.462;2023-03-23T04:22:15;4.10;;;2.17;;
75429;SDS011;64127;51.488;5.462;2023-03-23T04:24:46;4.30;;;2.33;;
75429;SDS011;64127;51.488;5.462;2023-03-23T04:27:21;4.80;;;2.40;;
75429;SDS011;64127;51.488;5.462;2023-03-23T04:29:54;5.17;;;2.50;;
75429;SDS011;64127;51.488;5.462;2023-03-23T04:32:28;5.40;;;2.33;;
75429;SDS011;64127;51.488;5.462;2023-03-23T04:35:01;4.70;;;2.20;;
75429;SDS011;64127;51.488;5.462;2023-03-23T04:37:32;5.83;;;2.63;;
75429;SDS011;64127;51.488;5.462;2023-03-23T04:40:03;4.77;;;2.17;;
75429;SDS011;64127;51.488;5.462;2023-03-23T04:42:37;6.10;;;2.53;;
75429;SDS011;64127;51.488;5.462;2023-03-23T04:45:09;5.70;;;2.47;;
75429;SDS011;64127;51.488;5.462;2023-03-23T04:47:40;5.47;;;2.20;;
75429;SDS011;64127;51.488;5.462;2023-03-23T04:50:12;5.47;;;2.10;;
75429;SDS011;64127;51.488;5.462;2023-03-23T04:52:43;4.37;;;2.00;;
75429;SDS011;64127;51.488;5.462;2023-03-23T04:55:15;5.73;;;2.30;;
75429;SDS011;64127;51.488;5.462;2023-03-23T04:57:46;4.20;;;2.20;;
75429;SDS011;64127;51.488;5.462;2023-03-23T05:00:18;3.43;;;2.07;;
75429;SDS011;64127;51.488;5.462;2023-03-23T05:02:50;5.10;;;1.90;;
75429;SDS011;64127;51.488;5.462;2023-03-23T05:05:23;4.67;;;2.00;;
75429;SDS011;64127;51.488;5.462;2023-03-23T05:07:55;5.90;;;2.37;;
75429;SDS011;64127;51.488;5.462;2023-03-23T05:10:27;6.27;;;2.30;;
75429;SDS011;64127;51.488;5.462;2023-03-23T05:12:58;5.67;;;2.40;;
75429;SDS011;64127;51.488;5.462;2023-03-23T05:15:29;5.33;;;2.57;;
75429;SDS011;64127;51.488;5.462;2023-03-23T05:18:00;5.33;;;1.93;;
75429;SDS011;64127;51.488;5.462;2023-03-23T05:20:31;5.07;;;2.10;;
75429;SDS011;64127;51.488;5.462;2023-03-23T05:23:03;4.30;;;1.80;;
75429;SDS011;64127;51.488;5.462;2023-03-23T05:25:37;4.43;;;2.10;;
75429;SDS011;64127;51.488;5.462;2023-03-23T05:28:12;7.27;;;2.30;;
75429;SDS011;64127;51.488;5.462;2023-03-23T05:30:43;5.10;;;2.30;;
75429;SDS011;64127;51.488;5.462;2023-03-23T05:33:14;7.20;;;2.27;;
75429;SDS011;64127;51.488;5.462;2023-03-23T05:35:48;4.27;;;2.13;;
75429;SDS011;64127;51.488;5.462;2023-03-23T05:38:19;4.73;;;2.17;;
75429;SDS011;64127;51.488;5.462;2023-03-23T05:40:50;6.40;;;2.00;;
75429;SDS011;64127;51.488;5.462;2023-03-23T05:43:22;4.67;;;2.23;;
75429;SDS011;64127;51.488;5.462;2023-03-23T05:45:53;7.07;;;2.63;;
75429;SDS011;64127;51.488;5.462;2023-03-23T05:48:24;5.00;;;2.40;;
75429;SDS011;64127;51.488;5.462;2023-03-23T05:50:55;6.63;;;2.53;;
75429;SDS011;64127;51.488;5.462;2023-03-23T05:53:26;5.03;;;2.33;;
75429;SDS011;64127;51.488;5.462;2023-03-23T05:56:00;4.63;;;2.40;;
75429;SDS011;64127;51.488;5.462;2023-03-23T05:58:32;5.17;;;2.57;;
75429;SDS011;64127;51.488;5.462;2023-03-23T06:01:06;3.93;;;2.27;;
75429;SDS011;64127;51.488;5.462;2023-03-23T06:03:37;4.37;;;2.27;;
75429;SDS011;64127;51.488;5.462;2023-03-23T06:06:09;7.07;;;2.67;;
75429;SDS011;64127;51.488;5.462;2023-03-23T06:08:41;7.93;;;2.63;;
75429;SDS011;64127;51.488;5.462;2023-03-23T06:11:12;6.30;;;2.53;;
75429;SDS011;64127;51.488;5.462;2023-03-23T06:13:44;6.67;;;2.63;;
75429;SDS011;64127;51.488;5.462;2023-03-23T06:16:15;5.30;;;2.30;;
75429;SDS011;64127;51.488;5.462;2023-03-23T06:18:46;5.37;;;2.43;;
75429;SDS011;64127;51.488;5.462;2023-03-23T06:21:18;4.57;;;2.40;;
75429;SDS011;64127;51.488;5.462;2023-03-23T06:23:49;5.67;;;2.63;;
75429;SDS011;64127;51.488;5.462;2023-03-23T06:26:20;8.43;;;2.90;;
75429;SDS011;64127;51.488;5.462;2023-03-23T06:28:55;5.37;;;2.30;;
75429;SDS011;64127;51.488;5.462;2023-03-23T06:31:27;6.03;;;2.43;;
75429;SDS011;64127;51.488;5.462;2023-03-23T06:33:58;6.00;;;2.30;;
75429;SDS011;64127;51.488;5.462;2023-03-23T06:36:29;6.67;;;2.47;;
75429;SDS011;64127;51.488;5.462;2023-03-23T06:39:00;6.63;;;2.27;;
75429;SDS011;64127;51.488;5.462;2023-03-23T06:41:34;5.37;;;2.40;;
75429;SDS011;64127;51.488;5.462;2023-03-23T06:44:05;4.97;;;2.10;;
75429;SDS011;64127;51.488;5.462;2023-03-23T06:46:37;6.57;;;2.70;;
75429;SDS011;64127;51.488;5.462;2023-03-23T06:49:08;5.03;;;2.40;;
75429;SDS011;64127;51.488;5.462;2023-03-23T06:51:39;6.00;;;2.37;;
75429;SDS011;64127;51.488;5.462;2023-03-23T06:54:11;5.63;;;2.43;;
75429;SDS011;64127;51.488;5.462;2023-03-23T06:56:42;5.90;;;2.33;;
75429;SDS011;64127;51.488;5.462;2023-03-23T06:59:12;5.77;;;2.80;;
75429;SDS011;64127;51.488;5.462;2023-03-23T07:01:43;6.53;;;2.70;;
75429;SDS011;64127;51.488;5.462;2023-03-23T07:04:14;4.97;;;2.17;;
75429;SDS011;64127;51.488;5.462;2023-03-23T07:06:46;6.13;;;2.23;;
75429;SDS011;64127;51.488;5.462;2023-03-23T07:09:17;5.33;;;2.53;;
75429;SDS011;64127;51.488;5.462;2023-03-23T07:11:48;7.33;;;2.43;;
75429;SDS011;64127;51.488;5.462;2023-03-23T07:14:21;6.40;;;2.60;;
75429;SDS011;64127;51.488;5.462;2023-03-23T07:16:53;6.90;;;2.67;;
75429;SDS011;64127;51.488;5.462;2023-03-23T07:19:23;8.20;;;2.80;;
75429;SDS011;64127;51.488;5.462;2023-03-23T07:21:54;5.60;;;2.40;;
75429;SDS011;64127;51.488;5.462;2023-03-23T07:24:27;5.00;;;3.00;;
75429;SDS011;64127;51.488;5.462;2023-03-23T07:26:58;5.50;;;2.37;;
75429;SDS011;64127;51.488;5.462;2023-03-23T07:29:29;6.27;;;2.60;;
75429;SDS011;64127;51.488;5.462;2023-03-23T07:32:01;5.97;;;2.60;;
75429;SDS011;64127;51.488;5.462;2023-03-23T07:34:32;5.80;;;2.70;;
75429;SDS011;64127;51.488;5.462;2023-03-23T07:37:03;6.93;;;2.83;;
75429;SDS011;64127;51.488;5.462;2023-03-23T07:39:35;7.40;;;3.20;;
75429;SDS011;64127;51.488;5.462;2023-03-23T07:42:07;8.70;;;2.77;;
75429;SDS011;64127;51.488;5.462;2023-03-23T07:44:38;9.30;;;3.20;;
75429;SDS011;64127;51.488;5.462;2023-03-23T07:47:09;6.23;;;2.60;;
75429;SDS011;64127;51.488;5.462;2023-03-23T07:49:40;8.23;;;3.30;;
75429;SDS011;64127;51.488;5.462;2023-03-23T07:52:11;3.97;;;1.83;;
75429;SDS011;64127;51.488;5.462;2023-03-23T07:54:43;3.97;;;1.80;;
75429;SDS011;64127;51.488;5.462;2023-03-23T07:57:13;3.80;;;1.77;;
75429;SDS011;64127;51.488;5.462;2023-03-23T07:59:44;3.37;;;1.87;;
75429;SDS011;64127;51.488;5.462;2023-03-23T08:02:16;5.00;;;2.27;;
75429;SDS011;64127;51.488;5.462;2023-03-23T08:04:47;2.43;;;1.70;;
75429;SDS011;64127;51.488;5.462;2023-03-23T08:07:18;3.27;;;1.70;;
75429;SDS011;64127;51.488;5.462;2023-03-23T08:09:50;2.10;;;1.30;;
75429;SDS011;64127;51.488;5.462;2023-03-23T08:12:21;2.13;;;1.20;;
75429;SDS011;64127;51.488;5.462;2023-03-23T08:14:52;4.83;;;1.60;;
75429;SDS011;64127;51.488;5.462;2023-03-23T08:17:23;1.87;;;1.07;;
75429;SDS011;64127;51.488;5.462;2023-03-23T08:19:54;3.10;;;1.57;;
75429;SDS011;64127;51.488;5.462;2023-03-23T08:22:25;2.67;;;1.40;;
75429;SDS011;64127;51.488;5.462;2023-03-23T08:24:59;1.87;;;1.30;;
75429;SDS011;64127;51.488;5.462;2023-03-23T08:27:30;2.90;;;1.10;;
75429;SDS011;64127;51.488;5.462;2023-03-23T08:30:03;4.43;;;1.53;;
75429;SDS011;64127;51.488;5.462;2023-03-23T08:32:35;2.57;;;1.50;;
75429;SDS011;64127;51.488;5.462;2023-03-23T08:35:07;2.90;;;1.60;;
75429;SDS011;64127;51.488;5.462;2023-03-23T08:37:41;2.93;;;1.43;;
75429;SDS011;64127;51.488;5.462;2023-03-23T08:40:13;4.67;;;1.60;;
75429;SDS011;64127;51.488;5.462;2023-03-23T08:42:45;1.53;;;1.27;;
75429;SDS011;64127;51.488;5.462;2023-03-23T08:45:19;2.43;;;1.30;;
75429;SDS011;64127;51.488;5.462;2023-03-23T08:47:52;1.00;;;0.90;;
75429;SDS011;64127;51.488;5.462;2023-03-23T08:50:26;2.90;;;1.20;;
75429;SDS011;64127;51.488;5.462;2023-03-23T08:52:58;1.87;;;1.20;;
75429;SDS011;64127;51.488;5.462;2023-03-23T08:55:29;2.00;;;1.17;;
75429;SDS011;64127;51.488;5.462;2023-03-23T08:58:00;3.67;;;1.40;;
75429;SDS011;64127;51.488;5.462;2023-03-23T09:00:31;2.27;;;1.40;;
75429;SDS011;64127;51.488;5.462;2023-03-23T09:03:02;5.07;;;1.40;;
75429;SDS011;64127;51.488;5.462;2023-03-23T09:05:34;2.07;;;1.20;;
75429;SDS011;64127;51.488;5.462;2023-03-23T09:08:05;3.43;;;1.50;;
75429;SDS011;64127;51.488;5.462;2023-03-23T09:10:38;2.30;;;1.30;;
75429;SDS011;64127;51.488;5.462;2023-03-23T09:13:09;2.03;;;1.30;;
75429;SDS011;64127;51.488;5.462;2023-03-23T09:15:40;2.77;;;1.40;;
75429;SDS011;64127;51.488;5.462;2023-03-23T09:18:11;2.27;;;1.47;;
75429;SDS011;64127;51.488;5.462;2023-03-23T09:20:44;1.63;;;1.17;;
75429;SDS011;64127;51.488;5.462;2023-03-23T09:23:16;3.10;;;1.43;;
75429;SDS011;64127;51.488;5.462;2023-03-23T09:25:47;2.60;;;1.47;;
75429;SDS011;64127;51.488;5.462;2023-03-23T09:28:19;1.87;;;1.30;;
75429;SDS011;64127;51.488;5.462;2023-03-23T09:30:50;2.97;;;1.30;;
75429;SDS011;64127;51.488;5.462;2023-03-23T09:33:22;4.03;;;1.37;;
75429;SDS011;64127;51.488;5.462;2023-03-23T09:35:54;3.80;;;1.47;;
75429;SDS011;64127;51.488;5.462;2023-03-23T09:38:25;1.67;;;1.20;;
75429;SDS011;64127;51.488;5.462;2023-03-23T09:55:17;2.87;;;1.57;;
75429;SDS011;64127;51.488;5.462;2023-03-23T10:00:32;2.17;;;1.33;;
75429;SDS011;64127;51.488;5.462;2023-03-23T10:03:38;2.47;;;1.30;;
75429;SDS011;64127;51.488;5.462;2023-03-23T10:06:16;3.07;;;1.47;;
75429;SDS011;64127;51.488;5.462;2023-03-23T10:08:52;3.17;;;1.37;;
75429;SDS011;64127;51.488;5.462;2023-03-23T10:20:01;2.33;;;1.33;;
75429;SDS011;64127;51.488;5.462;2023-03-23T10:23:41;3.53;;;1.60;;
75429;SDS011;64127;51.488;5.462;2023-03-23T10:30:02;3.10;;;1.80;;
75429;SDS011;64127;51.488;5.462;2023-03-23T10:35:59;3.27;;;1.87;;
75429;SDS011;64127;51.488;5.462;2023-03-23T10:39:09;4.23;;;1.90;;
75429;SDS011;64127;51.488;5.462;2023-03-23T10:41:47;5.00;;;2.40;;
75429;SDS011;64127;51.488;5.462;2023-03-23T10:44:22;4.67;;;1.80;;
75429;SDS011;64127;51.488;5.462;2023-03-23T10:57:38;4.87;;;2.33;;
75429;SDS011;64127;51.488;5.462;2023-03-23T11:02:59;4.67;;;2.20;;
75429;SDS011;64127;51.488;5.462;2023-03-23T11:05:54;5.33;;;2.27;;
75429;SDS011;64127;51.488;5.462;2023-03-23T11:08:30;4.70;;;2.10;;
75429;SDS011;64127;51.488;5.462;2023-03-23T11:13:56;5.57;;;2.10;;
75429;SDS011;64127;51.488;5.462;2023-03-23T11:16:53;6.73;;;2.23;;
75429;SDS011;64127;51.488;5.462;2023-03-23T11:19:31;4.83;;;2.13;;
75429;SDS011;64127;51.488;5.462;2023-03-23T11:22:08;6.47;;;1.90;;
75429;SDS011;64127;51.488;5.462;2023-03-23T11:25:02;4.57;;;2.17;;
75429;SDS011;64127;51.488;5.462;2023-03-23T11:27:37;5.97;;;2.10;;
75429;SDS011;64127;51.488;5.462;2023-03-23T11:30:14;4.40;;;1.90;;
75429;SDS011;64127;51.488;5.462;2023-03-23T11:32:59;4.77;;;2.00;;
75429;SDS011;64127;51.488;5.462;2023-03-23T11:35:32;3.83;;;1.80;;
75429;SDS011;64127;51.488;5.462;2023-03-23T11:38:04;3.43;;;2.00;;
75429;SDS011;64127;51.488;5.462;2023-03-23T11:40:43;4.43;;;1.90;;
75429;SDS011;64127;51.488;5.462;2023-03-23T11:43:21;3.93;;;1.80;;
75429;SDS011;64127;51.488;5.462;2023-03-23T11:46:05;3.43;;;1.63;;
75429;SDS011;64127;51.488;5.462;2023-03-23T11:49:39;3.27;;;1.63;;
75429;SDS011;64127;51.488;5.462;2023-03-23T11:52:31;2.93;;;1.83;;
75429;SDS011;64127;51.488;5.462;2023-03-23T11:55:28;2.17;;;1.57;;
75429;SDS011;64127;51.488;5.462;2023-03-23T11:58:23;4.90;;;1.93;;
75429;SDS011;64127;51.488;5.462;2023-03-23T12:00:58;3.10;;;1.73;;
75429;SDS011;64127;51.488;5.462;2023-03-23T12:03:52;2.53;;;1.60;;
75429;SDS011;64127;51.488;5.462;2023-03-23T12:16:48;4.27;;;1.90;;
75429;SDS011;64127;51.488;5.462;2023-03-23T12:19:49;3.77;;;2.03;;
75429;SDS011;64127;51.488;5.462;2023-03-23T12:23:08;4.77;;;2.10;;
75429;SDS011;64127;51.488;5.462;2023-03-23T12:26:10;3.77;;;1.83;;
75429;SDS011;64127;51.488;5.462;2023-03-23T12:29:13;5.13;;;2.00;;
75429;SDS011;64127;51.488;5.462;2023-03-23T12:31:59;3.97;;;2.03;;
75429;SDS011;64127;51.488;5.462;2023-03-23T12:40:52;3.27;;;1.90;;
75429;SDS011;64127;51.488;5.462;2023-03-23T12:43:50;4.90;;;2.20;;
75429;SDS011;64127;51.488;5.462;2023-03-23T12:49:56;4.97;;;2.20;;
75429;SDS011;64127;51.488;5.462;2023-03-23T12:52:57;6.60;;;2.40;;
75429;SDS011;64127;51.488;5.462;2023-03-23T12:55:46;7.67;;;2.13;;
75429;SDS011;64127;51.488;5.462;2023-03-23T12:58:26;6.10;;;2.20;;
75429;SDS011;64127;51.488;5.462;2023-03-23T13:06:45;5.83;;;2.43;;
75429;SDS011;64127;51.488;5.462;2023-03-23T13:12:07;4.83;;;2.23;;
75429;SDS011;64127;51.488;5.462;2023-03-23T13:23:21;7.03;;;2.67;;
75429;SDS011;64127;51.488;5.462;2023-03-23T13:26:02;6.73;;;2.60;;
75429;SDS011;64127;51.488;5.462;2023-03-23T13:31:33;6.37;;;2.40;;
75429;SDS011;64127;51.488;5.462;2023-03-23T13:34:28;6.10;;;2.50;;
75429;SDS011;64127;51.488;5.462;2023-03-23T13:37:02;4.57;;;2.30;;
75429;SDS011;64127;51.488;5.462;2023-03-23T13:39:38;7.60;;;2.60;;
75429;SDS011;64127;51.488;5.462;2023-03-23T13:42:24;5.30;;;2.43;;
75429;SDS011;64127;51.488;5.462;2023-03-23T13:48:04;6.00;;;2.50;;
75429;SDS011;64127;51.488;5.462;2023-03-23T13:51:00;6.73;;;2.67;;
75429;SDS011;64127;51.488;5.462;2023-03-23T13:53:43;7.07;;;3.10;;
75429;SDS011;64127;51.488;5.462;2023-03-23T13:56:18;10.87;;;3.37;;
75429;SDS011;64127;51.488;5.462;2023-03-23T13:59:16;6.83;;;2.90;;
75429;SDS011;64127;51.488;5.462;2023-03-23T14:05:11;9.17;;;3.50;;
75429;SDS011;64127;51.488;5.462;2023-03-23T14:07:56;10.13;;;2.83;;
75429;SDS011;64127;51.488;5.462;2023-03-23T14:10:48;5.77;;;2.50;;
75429;SDS011;64127;51.488;5.462;2023-03-23T14:13:58;5.97;;;2.60;;
75429;SDS011;64127;51.488;5.462;2023-03-23T14:21:59;5.43;;;2.53;;
75429;SDS011;64127;51.488;5.462;2023-03-23T14:24:33;4.73;;;2.60;;
75429;SDS011;64127;51.488;5.462;2023-03-23T14:29:59;5.67;;;2.33;;
75429;SDS011;64127;51.488;5.462;2023-03-23T14:32:35;5.27;;;2.53;;
75429;SDS011;64127;51.488;5.462;2023-03-23T14:35:27;6.23;;;2.57;;
75429;SDS011;64127;51.488;5.462;2023-03-23T14:38:03;5.47;;;2.70;;
75429;SDS011;64127;51.488;5.462;2023-03-23T14:40:34;6.53;;;2.50;;
75429;SDS011;64127;51.488;5.462;2023-03-23T14:43:05;6.10;;;2.67;;
75429;SDS011;64127;51.488;5.462;2023-03-23T14:45:40;5.23;;;2.53;;
75429;SDS011;64127;51.488;5.462;2023-03-23T14:48:12;5.77;;;2.80;;
75429;SDS011;64127;51.488;5.462;2023-03-23T14:50:55;6.13;;;2.60;;
75429;SDS011;64127;51.488;5.462;2023-03-23T14:53:38;7.43;;;2.77;;
75429;SDS011;64127;51.488;5.462;2023-03-23T14:56:13;4.93;;;2.53;;
75429;SDS011;64127;51.488;5.462;2023-03-23T14:58:47;6.60;;;2.63;;
75429;SDS011;64127;51.488;5.462;2023-03-23T15:01:24;3.87;;;2.17;;
75429;SDS011;64127;51.488;5.462;2023-03-23T15:04:01;7.23;;;2.63;;
75429;SDS011;64127;51.488;5.462;2023-03-23T15:06:42;4.63;;;2.30;;
75429;SDS011;64127;51.488;5.462;2023-03-23T15:09:20;5.37;;;2.67;;
75429;SDS011;64127;51.488;5.462;2023-03-23T15:12:03;5.70;;;2.77;;
75429;SDS011;64127;51.488;5.462;2023-03-23T15:14:41;6.20;;;2.50;;
75429;SDS011;64127;51.488;5.462;2023-03-23T15:17:21;4.40;;;2.33;;
75429;SDS011;64127;51.488;5.462;2023-03-23T15:19:56;4.20;;;2.23;;
75429;SDS011;64127;51.488;5.462;2023-03-23T15:22:29;5.67;;;2.70;;
75429;SDS011;64127;51.488;5.462;2023-03-23T15:25:11;4.93;;;2.10;;
75429;SDS011;64127;51.488;5.462;2023-03-23T15:27:56;5.67;;;2.53;;
75429;SDS011;64127;51.488;5.462;2023-03-23T15:30:37;3.93;;;2.00;;
75429;SDS011;64127;51.488;5.462;2023-03-23T15:33:22;6.93;;;2.67;;
75429;SDS011;64127;51.488;5.462;2023-03-23T15:35:57;5.53;;;2.50;;
75429;SDS011;64127;51.488;5.462;2023-03-23T15:38:29;6.80;;;2.50;;
75429;SDS011;64127;51.488;5.462;2023-03-23T15:41:04;5.63;;;2.67;;
75429;SDS011;64127;51.488;5.462;2023-03-23T15:43:51;6.23;;;2.70;;
75429;SDS011;64127;51.488;5.462;2023-03-23T15:46:28;6.03;;;2.40;;
75429;SDS011;64127;51.488;5.462;2023-03-23T15:51:30;6.13;;;2.50;;
75429;SDS011;64127;51.488;5.462;2023-03-23T15:54:02;6.73;;;2.90;;
75429;SDS011;64127;51.488;5.462;2023-03-23T15:56:42;4.93;;;2.33;;
75429;SDS011;64127;51.488;5.462;2023-03-23T15:59:14;6.77;;;2.70;;
75429;SDS011;64127;51.488;5.462;2023-03-23T16:01:47;6.53;;;2.70;;
75429;SDS011;64127;51.488;5.462;2023-03-23T16:04:19;5.27;;;2.40;;
75429;SDS011;64127;51.488;5.462;2023-03-23T16:06:52;4.90;;;2.47;;
75429;SDS011;64127;51.488;5.462;2023-03-23T16:09:27;5.90;;;2.80;;
75429;SDS011;64127;51.488;5.462;2023-03-23T16:11:59;7.23;;;2.90;;
75429;SDS011;64127;51.488;5.462;2023-03-23T16:14:31;5.23;;;2.23;;
75429;SDS011;64127;51.488;5.462;2023-03-23T16:17:03;6.50;;;2.57;;
75429;SDS011;64127;51.488;5.462;2023-03-23T16:19:36;6.63;;;2.40;;
75429;SDS011;64127;51.488;5.462;2023-03-23T16:22:08;4.90;;;2.20;;
75429;SDS011;64127;51.488;5.462;2023-03-23T16:24:40;4.23;;;2.33;;
75429;SDS011;64127;51.488;5.462;2023-03-23T16:27:12;7.10;;;2.67;;
75429;SDS011;64127;51.488;5.462;2023-03-23T16:29:45;6.20;;;2.80;;
75429;SDS011;64127;51.488;5.462;2023-03-23T16:32:34;5.90;;;2.80;;
75429;SDS011;64127;51.488;5.462;2023-03-23T16:35:05;4.93;;;2.53;;
75429;SDS011;64127;51.488;5.462;2023-03-23T16:37:37;7.73;;;3.00;;
75429;SDS011;64127;51.488;5.462;2023-03-23T16:40:10;5.53;;;2.70;;
75429;SDS011;64127;51.488;5.462;2023-03-23T16:42:44;5.60;;;2.70;;
75429;SDS011;64127;51.488;5.462;2023-03-23T16:45:16;4.63;;;2.77;;
75429;SDS011;64127;51.488;5.462;2023-03-23T16:47:49;5.53;;;2.60;;
75429;SDS011;64127;51.488;5.462;2023-03-23T16:50:21;6.93;;;2.80;;
75429;SDS011;64127;51.488;5.462;2023-03-23T16:52:54;6.60;;;2.80;;
75429;SDS011;64127;51.488;5.462;2023-03-23T16:55:26;5.83;;;3.07;;
75429;SDS011;64127;51.488;5.462;2023-03-23T16:58:00;6.23;;;2.90;;
75429;SDS011;64127;51.488;5.462;2023-03-23T17:00:47;5.33;;;2.97;;
75429;SDS011;64127;51.488;5.462;2023-03-23T17:03:21;6.13;;;3.00;;
75429;SDS011;64127;51.488;5.462;2023-03-23T17:05:53;4.93;;;2.63;;
75429;SDS011;64127;51.488;5.462;2023-03-23T17:08:26;7.37;;;3.10;;
75429;SDS011;64127;51.488;5.462;2023-03-23T17:10:58;4.70;;;2.57;;
75429;SDS011;64127;51.488;5.462;2023-03-23T17:13:31;7.20;;;3.03;;
75429;SDS011;64127;51.488;5.462;2023-03-23T17:16:03;6.97;;;3.00;;
75429;SDS011;64127;51.488;5.462;2023-03-23T17:18:35;10.50;;;3.30;;
75429;SDS011;64127;51.488;5.462;2023-03-23T17:21:07;7.23;;;2.87;;
75429;SDS011;64127;51.488;5.462;2023-03-23T17:23:39;6.17;;;3.20;;
75429;SDS011;64127;51.488;5.462;2023-03-23T17:26:11;6.63;;;3.00;;
75429;SDS011;64127;51.488;5.462;2023-03-23T17:28:43;5.90;;;3.33;;
75429;SDS011;64127;51.488;5.462;2023-03-23T17:31:16;8.53;;;3.50;;
75429;SDS011;64127;51.488;5.462;2023-03-23T17:33:48;6.50;;;3.30;;
75429;SDS011;64127;51.488;5.462;2023-03-23T17:36:22;6.13;;;3.40;;
75429;SDS011;64127;51.488;5.462;2023-03-23T17:38:54;6.67;;;3.50;;
75429;SDS011;64127;51.488;5.462;2023-03-23T17:41:26;7.83;;;3.40;;
75429;SDS011;64127;51.488;5.462;2023-03-23T17:43:58;8.07;;;3.37;;
75429;SDS011;64127;51.488;5.462;2023-03-23T17:46:31;8.47;;;3.57;;